createdAt,value
2018-11-22T00:00:38.522Z,375
2018-11-22T00:01:45.457Z,375
2018-11-22T00:02:52.410Z,375
2018-11-22T00:03:59.070Z,375
2018-11-22T00:05:05.743Z,374
2018-11-22T00:06:12.950Z,374
2018-11-22T00:07:20.375Z,374
2018-11-22T00:08:27.579Z,374
2018-11-22T00:09:34.530Z,373
2018-11-22T00:10:40.908Z,373
2018-11-22T00:11:47.854Z,373
2018-11-22T00:12:53.957Z,373
2018-11-22T00:14:01.176Z,373
2018-11-22T00:15:08.374Z,372
2018-11-22T00:16:14.761Z,372
2018-11-22T00:17:21.696Z,372
2018-11-22T00:18:28.915Z,372
2018-11-22T00:19:35.853Z,372
2018-11-22T00:20:42.611Z,372
2018-11-22T00:21:49.546Z,372
2018-11-22T00:22:56.760Z,372
2018-11-22T00:24:03.697Z,371
2018-11-22T00:25:10.644Z,372
2018-11-22T00:26:17.848Z,372
2018-11-22T00:27:25.070Z,372
2018-11-22T00:28:32.001Z,372
2018-11-22T00:29:39.211Z,372
2018-11-22T00:30:46.137Z,372
2018-11-22T00:31:53.353Z,372
2018-11-22T00:33:00.010Z,372
2018-11-22T00:34:06.948Z,373
2018-11-22T00:35:14.153Z,372
2018-11-22T00:36:21.373Z,372
2018-11-22T00:37:28.302Z,372
2018-11-22T00:38:34.967Z,372
2018-11-22T00:39:42.172Z,372
2018-11-22T00:40:49.385Z,372
2018-11-22T00:41:56.591Z,372
2018-11-22T00:43:03.813Z,372
2018-11-22T00:44:10.741Z,372
2018-11-22T00:45:17.964Z,372
2018-11-22T00:46:25.171Z,371
2018-11-22T00:47:32.112Z,372
2018-11-22T00:48:39.047Z,371
2018-11-22T00:49:46.001Z,371
2018-11-22T00:50:52.653Z,371
2018-11-22T00:51:59.869Z,371
2018-11-22T00:53:06.787Z,371
2018-11-22T00:54:14.015Z,371
2018-11-22T00:55:21.220Z,371
2018-11-22T00:56:27.899Z,371
2018-11-22T00:57:35.098Z,371
2018-11-22T00:58:42.317Z,371
2018-11-22T00:59:48.998Z,371
2018-11-22T01:00:55.931Z,372
2018-11-22T01:02:03.131Z,371
2018-11-22T01:03:10.077Z,371
2018-11-22T01:04:17.282Z,372
2018-11-22T01:05:24.494Z,371
2018-11-22T01:06:31.701Z,372
2018-11-22T01:07:38.635Z,372
2018-11-22T01:08:45.558Z,372
2018-11-22T01:09:52.493Z,372
2018-11-22T01:10:59.456Z,372
2018-11-22T01:12:06.417Z,372
2018-11-22T01:13:13.629Z,371
2018-11-22T01:14:20.572Z,371
2018-11-22T01:15:27.501Z,371
2018-11-22T01:16:34.456Z,372
2018-11-22T01:17:41.386Z,371
2018-11-22T01:18:48.340Z,371
2018-11-22T01:19:55.544Z,371
2018-11-22T01:21:02.762Z,371
2018-11-22T01:22:09.701Z,371
2018-11-22T01:23:16.375Z,371
2018-11-22T01:24:23.310Z,371
2018-11-22T01:25:30.261Z,371
2018-11-22T01:26:37.460Z,371
2018-11-22T01:27:44.400Z,371
2018-11-22T01:28:51.599Z,371
2018-11-22T01:29:58.824Z,371
2018-11-22T01:31:06.025Z,371
2018-11-22T01:32:13.244Z,371
2018-11-22T01:33:20.193Z,371
2018-11-22T01:34:27.128Z,371
2018-11-22T01:35:34.340Z,371
2018-11-22T01:36:41.563Z,371
2018-11-22T01:37:48.764Z,371
2018-11-22T01:38:55.987Z,371
2018-11-22T01:40:03.199Z,371
2018-11-22T01:41:10.150Z,371
2018-11-22T01:42:16.801Z,371
2018-11-22T01:43:23.732Z,371
2018-11-22T01:44:30.938Z,371
2018-11-22T01:45:38.158Z,371
2018-11-22T01:46:45.351Z,371
2018-11-22T01:47:52.572Z,371
2018-11-22T01:48:59.781Z,372
2018-11-22T01:50:07.000Z,372
2018-11-22T01:51:14.212Z,371
2018-11-22T01:52:20.888Z,372
2018-11-22T01:53:27.814Z,372
2018-11-22T01:54:35.049Z,372
2018-11-22T01:55:41.703Z,372
2018-11-22T01:56:48.921Z,372
2018-11-22T01:57:55.584Z,372
2018-11-22T01:59:02.811Z,372
2018-11-22T02:00:09.469Z,371
2018-11-22T02:01:16.138Z,372
2018-11-22T02:02:23.068Z,371
2018-11-22T02:03:30.020Z,372
2018-11-22T02:04:37.242Z,371
2018-11-22T02:05:43.915Z,372
2018-11-22T02:06:51.124Z,371
2018-11-22T02:07:58.061Z,371
2018-11-22T02:09:05.262Z,371
2018-11-22T02:10:12.216Z,372
2018-11-22T02:11:19.154Z,371
2018-11-22T02:12:26.101Z,372
2018-11-22T02:13:33.033Z,371
2018-11-22T02:14:39.992Z,372
2018-11-22T02:15:46.922Z,371
2018-11-22T02:16:53.592Z,371
2018-11-22T02:18:00.529Z,372
2018-11-22T02:19:07.755Z,372
2018-11-22T02:20:14.407Z,371
2018-11-22T02:21:21.617Z,372
2018-11-22T02:22:28.825Z,372
2018-11-22T02:23:35.774Z,372
2018-11-22T02:24:42.991Z,372
2018-11-22T02:25:50.200Z,372
2018-11-22T02:26:57.138Z,371
2018-11-22T02:28:04.359Z,371
2018-11-22T02:29:11.569Z,372
2018-11-22T02:30:18.513Z,372
2018-11-22T02:31:25.170Z,372
2018-11-22T02:32:32.117Z,372
2018-11-22T02:33:39.313Z,372
2018-11-22T02:34:46.543Z,372
2018-11-22T02:35:53.463Z,371
2018-11-22T02:37:00.687Z,372
2018-11-22T02:38:07.902Z,372
2018-11-22T02:39:14.852Z,371
2018-11-22T02:40:22.049Z,371
2018-11-22T02:41:29.275Z,372
2018-11-22T02:42:36.220Z,372
2018-11-22T02:43:43.451Z,372
2018-11-22T02:44:50.657Z,372
2018-11-22T02:45:57.887Z,372
2018-11-22T02:47:05.127Z,372
2018-11-22T02:48:12.087Z,372
2018-11-22T02:49:19.010Z,372
2018-11-22T02:50:25.686Z,373
2018-11-22T02:51:32.885Z,372
2018-11-22T02:52:40.107Z,372
2018-11-22T02:53:47.314Z,372
2018-11-22T02:54:54.543Z,372
2018-11-22T02:56:01.751Z,372
2018-11-22T02:57:08.693Z,373
2018-11-22T02:58:15.626Z,373
2018-11-22T02:59:22.837Z,372
2018-11-22T03:00:29.495Z,372
2018-11-22T03:01:36.164Z,373
2018-11-22T03:02:43.365Z,373
2018-11-22T03:03:50.595Z,372
2018-11-22T03:04:57.801Z,373
2018-11-22T03:06:04.739Z,372
2018-11-22T03:07:11.688Z,372
2018-11-22T03:08:18.912Z,373
2018-11-22T03:09:25.857Z,373
2018-11-22T03:10:33.072Z,372
2018-11-22T03:11:40.292Z,373
2018-11-22T03:12:48.652Z,373
2018-11-22T03:13:55.854Z,373
2018-11-22T03:15:03.083Z,373
2018-11-22T03:16:10.008Z,373
2018-11-22T03:17:16.409Z,373
2018-11-22T03:18:23.609Z,373
2018-11-22T03:19:30.559Z,372
2018-11-22T03:20:37.484Z,372
2018-11-22T03:21:44.430Z,373
2018-11-22T03:22:51.631Z,373
2018-11-22T03:23:58.851Z,372
2018-11-22T03:25:06.057Z,373
2018-11-22T03:26:13.282Z,373
2018-11-22T03:27:20.489Z,373
2018-11-22T03:28:27.711Z,373
2018-11-22T03:29:34.082Z,373
2018-11-22T03:30:41.033Z,373
2018-11-22T03:31:48.246Z,373
2018-11-22T03:32:55.464Z,372
2018-11-22T03:34:02.392Z,373
2018-11-22T03:35:09.613Z,373
2018-11-22T03:36:16.539Z,373
2018-11-22T03:37:23.752Z,372
2018-11-22T03:38:30.684Z,373
2018-11-22T03:39:37.354Z,373
2018-11-22T03:40:44.561Z,373
2018-11-22T03:41:51.512Z,373
2018-11-22T03:42:58.714Z,373
2018-11-22T03:44:05.664Z,372
2018-11-22T03:45:12.598Z,373
2018-11-22T03:46:19.812Z,372
2018-11-22T03:47:27.018Z,373
2018-11-22T03:48:34.243Z,373
2018-11-22T03:49:41.455Z,373
2018-11-22T03:50:48.671Z,372
2018-11-22T03:51:55.873Z,373
2018-11-22T03:53:03.090Z,372
2018-11-22T03:54:10.022Z,373
2018-11-22T03:55:17.236Z,373
2018-11-22T03:56:24.167Z,373
2018-11-22T03:57:31.120Z,373
2018-11-22T03:58:38.329Z,373
2018-11-22T03:59:44.998Z,373
2018-11-22T04:00:52.201Z,373
2018-11-22T04:01:59.149Z,373
2018-11-22T04:03:06.086Z,372
2018-11-22T04:04:13.010Z,373
2018-11-22T04:05:19.944Z,373
2018-11-22T04:06:26.603Z,373
2018-11-22T04:07:33.807Z,373
2018-11-22T04:08:41.982Z,373
2018-11-22T04:09:49.182Z,373
2018-11-22T04:10:56.129Z,373
2018-11-22T04:12:03.333Z,373
2018-11-22T04:13:09.989Z,373
2018-11-22T04:14:16.918Z,373
2018-11-22T04:15:23.592Z,372
2018-11-22T04:16:30.515Z,372
2018-11-22T04:17:37.198Z,373
2018-11-22T04:18:44.388Z,373
2018-11-22T04:19:51.342Z,373
2018-11-22T04:20:58.264Z,373
2018-11-22T04:22:05.490Z,373
2018-11-22T04:23:12.692Z,374
2018-11-22T04:24:19.634Z,373
2018-11-22T04:25:26.293Z,373
2018-11-22T04:26:33.232Z,373
2018-11-22T04:27:40.432Z,373
2018-11-22T04:28:47.647Z,374
2018-11-22T04:29:54.573Z,373
2018-11-22T04:31:01.523Z,374
2018-11-22T04:32:08.731Z,375
2018-11-22T04:33:15.675Z,374
2018-11-22T04:34:22.607Z,374
2018-11-22T04:35:29.002Z,374
2018-11-22T04:36:35.655Z,374
2018-11-22T04:37:42.320Z,374
2018-11-22T04:38:49.522Z,374
2018-11-22T04:39:56.189Z,375
2018-11-22T04:41:03.112Z,375
2018-11-22T04:42:10.059Z,375
2018-11-22T04:43:17.260Z,375
2018-11-22T04:44:23.934Z,375
2018-11-22T04:45:32.067Z,375
2018-11-22T04:46:39.019Z,375
2018-11-22T04:47:45.938Z,374
2018-11-22T04:48:53.164Z,374
2018-11-22T04:50:00.355Z,375
2018-11-22T04:51:07.577Z,374
2018-11-22T04:52:14.783Z,375
2018-11-22T04:53:21.736Z,374
2018-11-22T04:54:28.666Z,374
2018-11-22T04:55:35.335Z,374
2018-11-22T04:56:42.543Z,374
2018-11-22T04:57:49.484Z,374
2018-11-22T04:58:55.850Z,374
2018-11-22T05:00:02.793Z,374
2018-11-22T05:01:09.731Z,374
2018-11-22T05:02:16.681Z,373
2018-11-22T05:03:23.332Z,374
2018-11-22T05:04:31.717Z,374
2018-11-22T05:05:38.920Z,373
2018-11-22T05:06:45.867Z,373
2018-11-22T05:07:53.078Z,373
2018-11-22T05:09:00.294Z,374
2018-11-22T05:10:07.501Z,373
2018-11-22T05:11:14.953Z,374
2018-11-22T05:12:22.147Z,372
2018-11-22T05:13:29.362Z,373
2018-11-22T05:14:36.325Z,373
2018-11-22T05:15:43.275Z,373
2018-11-22T05:16:49.937Z,373
2018-11-22T05:17:57.148Z,373
2018-11-22T05:19:04.362Z,373
2018-11-22T05:20:11.579Z,373
2018-11-22T05:21:18.786Z,373
2018-11-22T05:22:26.012Z,373
2018-11-22T05:23:32.931Z,373
2018-11-22T05:24:39.873Z,372
2018-11-22T05:25:47.078Z,372
2018-11-22T05:26:54.297Z,372
2018-11-22T05:28:01.502Z,372
2018-11-22T05:29:13.395Z,372
2018-11-22T05:30:20.327Z,373
2018-11-22T05:31:27.272Z,372
2018-11-22T05:32:36.348Z,372
2018-11-22T05:33:43.299Z,372
2018-11-22T05:34:50.492Z,372
2018-11-22T05:35:57.438Z,372
2018-11-22T05:37:04.638Z,372
2018-11-22T05:38:11.859Z,372
2018-11-22T05:39:18.790Z,372
2018-11-22T05:40:26.010Z,372
2018-11-22T05:41:32.934Z,372
2018-11-22T05:42:39.602Z,372
2018-11-22T05:43:46.804Z,372
2018-11-22T05:44:53.475Z,372
2018-11-22T05:46:00.685Z,372
2018-11-22T05:47:07.350Z,372
2018-11-22T05:48:14.280Z,372
2018-11-22T05:49:21.505Z,372
2018-11-22T05:50:28.430Z,372
2018-11-22T05:51:35.652Z,372
2018-11-22T05:52:42.577Z,371
2018-11-22T05:53:49.796Z,372
2018-11-22T05:54:56.724Z,371
2018-11-22T05:56:03.686Z,372
2018-11-22T05:57:10.887Z,372
2018-11-22T05:58:18.101Z,371
2018-11-22T05:59:24.753Z,372
2018-11-22T06:00:31.980Z,371
2018-11-22T06:01:38.910Z,371
2018-11-22T06:02:46.129Z,371
2018-11-22T06:03:53.330Z,371
2018-11-22T06:05:00.591Z,371
2018-11-22T06:06:07.514Z,372
2018-11-22T06:07:14.734Z,371
2018-11-22T06:08:21.392Z,371
2018-11-22T06:09:28.606Z,371
2018-11-22T06:10:35.537Z,371
2018-11-22T06:11:42.478Z,371
2018-11-22T06:12:49.413Z,372
2018-11-22T06:13:56.633Z,372
2018-11-22T06:15:03.283Z,371
2018-11-22T06:16:10.237Z,372
2018-11-22T06:17:17.440Z,372
2018-11-22T06:18:24.101Z,372
2018-11-22T06:19:31.313Z,371
2018-11-22T06:20:38.259Z,371
2018-11-22T06:21:44.909Z,372
2018-11-22T06:22:51.324Z,372
2018-11-22T06:23:58.533Z,371
2018-11-22T06:25:05.747Z,372
2018-11-22T06:26:12.947Z,372
2018-11-22T06:27:19.887Z,372
2018-11-22T06:28:26.542Z,372
2018-11-22T06:29:33.476Z,372
2018-11-22T06:30:40.414Z,372
2018-11-22T06:31:47.638Z,372
2018-11-22T06:32:54.294Z,372
2018-11-22T06:34:01.238Z,372
2018-11-22T06:35:08.175Z,372
2018-11-22T06:36:15.120Z,372
2018-11-22T06:37:22.327Z,372
2018-11-22T06:38:28.987Z,373
2018-11-22T06:39:35.915Z,372
2018-11-22T06:40:42.864Z,372
2018-11-22T06:41:50.072Z,372
2018-11-22T06:42:57.310Z,373
2018-11-22T06:44:04.241Z,373
2018-11-22T06:45:11.190Z,373
2018-11-22T06:46:18.393Z,373
2018-11-22T06:47:25.336Z,373
2018-11-22T06:48:32.545Z,373
2018-11-22T06:49:39.214Z,373
2018-11-22T06:50:46.137Z,373
2018-11-22T06:51:53.088Z,373
2018-11-22T06:53:00.293Z,372
2018-11-22T06:54:07.513Z,372
2018-11-22T06:55:14.712Z,373
2018-11-22T06:56:21.658Z,373
2018-11-22T06:57:28.585Z,373
2018-11-22T06:58:35.525Z,373
2018-11-22T06:59:42.449Z,374
2018-11-22T07:00:49.124Z,374
2018-11-22T07:01:56.049Z,374
2018-11-22T07:03:03.276Z,373
2018-11-22T07:04:10.208Z,374
2018-11-22T07:05:17.427Z,373
2018-11-22T07:06:24.623Z,373
2018-11-22T07:07:31.296Z,373
2018-11-22T07:08:38.225Z,373
2018-11-22T07:09:44.892Z,373
2018-11-22T07:10:51.828Z,373
2018-11-22T07:11:58.770Z,373
2018-11-22T07:13:05.422Z,373
2018-11-22T07:14:12.360Z,373
2018-11-22T07:15:19.568Z,373
2018-11-22T07:16:26.506Z,373
2018-11-22T07:17:33.164Z,373
2018-11-22T07:18:40.109Z,373
2018-11-22T07:19:47.309Z,373
2018-11-22T07:20:54.273Z,373
2018-11-22T07:22:01.480Z,373
2018-11-22T07:23:08.423Z,373
2018-11-22T07:24:15.357Z,372
2018-11-22T07:25:22.580Z,373
2018-11-22T07:26:29.785Z,373
2018-11-22T07:27:39.312Z,372
2018-11-22T07:28:46.510Z,373
2018-11-22T07:29:53.730Z,373
2018-11-22T07:31:00.390Z,373
2018-11-22T07:32:07.604Z,373
2018-11-22T07:33:14.253Z,373
2018-11-22T07:34:21.469Z,372
2018-11-22T07:35:28.678Z,373
2018-11-22T07:36:35.891Z,372
2018-11-22T07:37:43.094Z,372
2018-11-22T07:38:50.036Z,373
2018-11-22T07:39:56.957Z,373
2018-11-22T07:41:03.898Z,373
2018-11-22T07:42:10.832Z,372
2018-11-22T07:43:18.051Z,373
2018-11-22T07:44:24.979Z,372
2018-11-22T07:45:32.198Z,373
2018-11-22T07:46:39.154Z,373
2018-11-22T07:47:46.098Z,373
2018-11-22T07:48:53.298Z,372
2018-11-22T07:50:00.250Z,372
2018-11-22T07:51:07.456Z,372
2018-11-22T07:52:14.405Z,372
2018-11-22T07:53:21.613Z,372
2018-11-22T07:54:28.830Z,372
2018-11-22T07:55:35.211Z,371
2018-11-22T07:56:42.441Z,372
2018-11-22T07:57:49.091Z,372
2018-11-22T07:58:56.308Z,372
2018-11-22T08:00:02.971Z,371
2018-11-22T08:01:10.191Z,372
2018-11-22T08:02:16.852Z,372
2018-11-22T08:03:24.072Z,371
2018-11-22T08:04:31.272Z,372
2018-11-22T08:05:38.491Z,372
2018-11-22T08:06:45.698Z,372
2018-11-22T08:07:52.366Z,372
2018-11-22T08:08:59.025Z,372
2018-11-22T08:10:05.965Z,373
2018-11-22T08:11:13.175Z,372
2018-11-22T08:12:26.931Z,371
2018-11-22T08:13:33.865Z,371
2018-11-22T08:14:41.089Z,371
2018-11-22T08:15:48.300Z,371
2018-11-22T08:16:55.519Z,371
2018-11-22T08:18:02.730Z,372
2018-11-22T08:19:09.945Z,371
2018-11-22T08:20:16.866Z,371
2018-11-22T08:21:23.550Z,371
2018-11-22T08:22:30.488Z,371
2018-11-22T08:23:37.146Z,371
2018-11-22T08:24:44.349Z,371
2018-11-22T08:25:51.290Z,371
2018-11-22T08:26:58.230Z,371
2018-11-22T08:28:05.171Z,371
2018-11-22T08:29:11.823Z,371
2018-11-22T08:30:19.035Z,371
2018-11-22T08:31:25.967Z,370
2018-11-22T08:32:33.181Z,370
2018-11-22T08:33:40.391Z,370
2018-11-22T08:34:47.607Z,370
2018-11-22T08:35:54.533Z,371
2018-11-22T08:37:01.753Z,371
2018-11-22T08:38:08.684Z,370
2018-11-22T08:39:15.635Z,370
2018-11-22T08:40:22.840Z,370
2018-11-22T08:41:29.773Z,370
2018-11-22T08:42:36.431Z,370
2018-11-22T08:43:43.649Z,370
2018-11-22T08:44:50.587Z,370
2018-11-22T08:45:57.256Z,370
2018-11-22T08:47:04.492Z,370
2018-11-22T08:48:11.722Z,370
2018-11-22T08:49:18.665Z,370
2018-11-22T08:50:25.887Z,370
2018-11-22T08:51:33.093Z,370
2018-11-22T08:52:39.757Z,369
2018-11-22T08:53:46.698Z,370
2018-11-22T08:54:53.918Z,369
2018-11-22T08:56:00.849Z,369
2018-11-22T08:57:08.068Z,369
2018-11-22T08:58:14.995Z,369
2018-11-22T08:59:22.212Z,369
2018-11-22T09:00:29.423Z,369
2018-11-22T09:01:36.634Z,369
2018-11-22T09:02:46.423Z,368
2018-11-22T09:03:53.368Z,368
2018-11-22T09:05:00.578Z,369
2018-11-22T09:06:07.795Z,368
2018-11-22T09:07:14.724Z,368
2018-11-22T09:08:21.667Z,369
2018-11-22T09:09:28.912Z,368
2018-11-22T09:10:36.119Z,368
2018-11-22T09:11:42.771Z,368
2018-11-22T09:12:49.995Z,368
2018-11-22T09:13:57.211Z,368
2018-11-22T09:15:04.426Z,368
2018-11-22T09:16:11.080Z,369
2018-11-22T09:17:18.294Z,369
2018-11-22T09:18:25.226Z,369
2018-11-22T09:19:32.168Z,369
2018-11-22T09:20:39.370Z,369
2018-11-22T09:21:46.301Z,369
2018-11-22T09:22:52.954Z,369
2018-11-22T09:24:00.171Z,370
2018-11-22T09:25:07.374Z,371
2018-11-22T09:26:14.589Z,371
2018-11-22T09:27:21.523Z,370
2018-11-22T09:28:28.746Z,371
2018-11-22T09:29:54.532Z,370
2018-11-22T09:31:01.463Z,370
2018-11-22T09:32:08.674Z,370
2018-11-22T09:33:15.350Z,369
2018-11-22T09:34:22.286Z,370
2018-11-22T09:35:29.503Z,370
2018-11-22T09:36:36.437Z,370
2018-11-22T09:37:43.659Z,369
2018-11-22T09:38:50.586Z,370
2018-11-22T09:39:57.815Z,370
2018-11-22T09:41:04.481Z,370
2018-11-22T09:42:11.779Z,370
2018-11-22T09:43:18.786Z,369
2018-11-22T09:44:25.737Z,369
2018-11-22T09:45:32.392Z,369
2018-11-22T09:46:39.614Z,369
2018-11-22T09:47:46.836Z,369
2018-11-22T09:48:53.237Z,369
2018-11-22T09:50:00.184Z,369
2018-11-22T09:51:07.124Z,369
2018-11-22T09:52:14.323Z,369
2018-11-22T09:53:21.541Z,369
2018-11-22T09:54:28.487Z,368
2018-11-22T09:55:35.711Z,368
2018-11-22T09:56:42.922Z,369
2018-11-22T09:57:49.881Z,368
2018-11-22T09:58:56.850Z,369
2018-11-22T10:00:03.791Z,369
2018-11-22T10:01:10.719Z,369
2018-11-22T10:02:17.390Z,369
2018-11-22T10:03:24.064Z,369
2018-11-22T10:04:31.352Z,369
2018-11-22T10:05:38.521Z,369
2018-11-22T10:06:45.520Z,368
2018-11-22T10:07:52.733Z,369
2018-11-22T10:08:59.962Z,369
2018-11-22T10:10:06.901Z,368
2018-11-22T10:11:14.119Z,368
2018-11-22T10:12:21.200Z,368
2018-11-22T10:13:28.463Z,367
2018-11-22T10:14:35.701Z,367
2018-11-22T10:15:42.372Z,367
2018-11-22T10:16:49.607Z,368
2018-11-22T10:17:56.605Z,367
2018-11-22T10:19:03.261Z,368
2018-11-22T10:20:10.201Z,368
2018-11-22T10:21:17.143Z,368
2018-11-22T10:22:24.264Z,368
2018-11-22T10:23:31.038Z,368
2018-11-22T10:24:37.984Z,368
2018-11-22T10:25:44.378Z,369
2018-11-22T10:26:50.782Z,368
2018-11-22T10:27:57.719Z,368
2018-11-22T10:29:04.389Z,368
2018-11-22T10:30:11.185Z,368
2018-11-22T10:31:18.505Z,368
2018-11-22T10:32:25.434Z,368
2018-11-22T10:33:32.381Z,368
2018-11-22T10:34:39.590Z,368
2018-11-22T10:35:46.808Z,368
2018-11-22T10:36:54.019Z,368
2018-11-22T10:38:01.830Z,368
2018-11-22T10:39:09.129Z,368
2018-11-22T10:40:16.299Z,368
2018-11-22T10:41:23.221Z,368
2018-11-22T10:42:30.322Z,369
2018-11-22T10:43:38.331Z,369
2018-11-22T10:44:45.564Z,368
2018-11-22T10:45:51.951Z,367
2018-11-22T10:46:58.894Z,367
2018-11-22T10:48:05.833Z,367
2018-11-22T10:49:13.045Z,367
2018-11-22T10:50:19.990Z,367
2018-11-22T10:51:27.214Z,368
2018-11-22T10:52:34.155Z,367
2018-11-22T10:53:40.847Z,366
2018-11-22T10:54:47.501Z,367
2018-11-22T10:55:54.716Z,367
2018-11-22T10:57:01.889Z,367
2018-11-22T10:58:09.107Z,367
2018-11-22T10:59:16.039Z,367
2018-11-22T11:00:22.715Z,367
2018-11-22T11:01:29.927Z,367
2018-11-22T11:02:36.883Z,367
2018-11-22T11:03:44.099Z,368
2018-11-22T11:04:51.058Z,367
2018-11-22T11:05:57.724Z,367
2018-11-22T11:07:04.952Z,368
2018-11-22T11:08:12.162Z,368
2018-11-22T11:09:18.857Z,367
2018-11-22T11:10:25.814Z,368
2018-11-22T11:11:32.772Z,367
2018-11-22T11:12:39.431Z,366
2018-11-22T11:13:46.096Z,367
2018-11-22T11:14:53.282Z,367
2018-11-22T11:16:00.279Z,367
2018-11-22T11:17:07.476Z,367
2018-11-22T11:18:14.421Z,367
2018-11-22T11:19:21.630Z,368
2018-11-22T11:20:28.848Z,367
2018-11-22T11:21:35.784Z,367
2018-11-22T11:22:42.737Z,368
2018-11-22T11:23:49.956Z,367
2018-11-22T11:24:57.168Z,368
2018-11-22T11:26:04.106Z,367
2018-11-22T11:27:11.322Z,367
2018-11-22T11:28:18.246Z,367
2018-11-22T11:29:25.514Z,368
2018-11-22T11:30:32.451Z,367
2018-11-22T11:31:39.108Z,366
2018-11-22T11:32:46.329Z,366
2018-11-22T11:33:53.548Z,367
2018-11-22T11:35:00.493Z,366
2018-11-22T11:36:07.445Z,367
2018-11-22T11:37:14.377Z,368
2018-11-22T11:38:21.596Z,368
2018-11-22T11:39:28.530Z,367
2018-11-22T11:40:35.495Z,368
2018-11-22T11:41:42.704Z,367
2018-11-22T11:42:49.366Z,367
2018-11-22T11:43:56.299Z,368
2018-11-22T11:45:03.247Z,367
2018-11-22T11:46:10.444Z,367
2018-11-22T11:47:17.396Z,367
2018-11-22T11:48:24.327Z,367
2018-11-22T11:49:31.278Z,367
2018-11-22T11:50:38.420Z,368
2018-11-22T11:51:45.363Z,367
2018-11-22T11:52:52.565Z,367
2018-11-22T11:53:59.517Z,367
2018-11-22T11:55:06.446Z,367
2018-11-22T11:56:13.394Z,367
2018-11-22T11:57:20.602Z,367
2018-11-22T11:58:27.548Z,367
2018-11-22T11:59:34.480Z,366
2018-11-22T12:00:41.698Z,366
2018-11-22T12:01:48.911Z,367
2018-11-22T12:02:55.851Z,366
2018-11-22T12:04:03.054Z,366
2018-11-22T12:05:10.032Z,367
2018-11-22T12:06:16.441Z,368
2018-11-22T12:07:23.671Z,368
2018-11-22T12:08:30.321Z,368
2018-11-22T12:09:37.540Z,368
2018-11-22T12:10:44.786Z,368
2018-11-22T12:11:51.736Z,369
2018-11-22T12:12:58.948Z,369
2018-11-22T12:14:05.895Z,369
2018-11-22T12:15:12.827Z,369
2018-11-22T12:16:20.055Z,369
2018-11-22T12:17:26.998Z,369
2018-11-22T12:18:38.089Z,369
2018-11-22T12:19:45.026Z,368
2018-11-22T12:20:51.981Z,368
2018-11-22T12:21:58.651Z,368
2018-11-22T12:23:05.875Z,368
2018-11-22T12:24:13.086Z,367
2018-11-22T12:25:20.028Z,367
2018-11-22T12:26:26.962Z,367
2018-11-22T12:27:33.623Z,367
2018-11-22T12:28:40.835Z,366
2018-11-22T12:29:47.784Z,367
2018-11-22T12:30:54.997Z,366
2018-11-22T12:32:02.224Z,366
2018-11-22T12:33:09.158Z,366
2018-11-22T12:34:16.114Z,366
2018-11-22T12:35:22.512Z,366
2018-11-22T12:36:29.469Z,366
2018-11-22T12:37:44.027Z,366
2018-11-22T12:38:51.235Z,365
2018-11-22T12:39:57.615Z,365
2018-11-22T12:41:04.858Z,366
2018-11-22T12:42:12.058Z,366
2018-11-22T12:43:19.012Z,367
2018-11-22T12:44:26.207Z,367
2018-11-22T12:45:33.145Z,367
2018-11-22T12:46:40.351Z,366
2018-11-22T12:47:47.568Z,366
2018-11-22T12:48:54.543Z,367
2018-11-22T12:50:01.770Z,368
2018-11-22T12:51:10.007Z,368
2018-11-22T12:52:16.965Z,368
2018-11-22T12:53:23.903Z,369
2018-11-22T12:54:30.585Z,369
2018-11-22T12:55:37.515Z,368
2018-11-22T12:56:44.457Z,367
2018-11-22T12:57:51.406Z,368
2018-11-22T12:58:58.359Z,366
2018-11-22T13:00:05.621Z,366
2018-11-22T13:01:12.602Z,366
2018-11-22T13:02:19.807Z,366
2018-11-22T13:03:26.472Z,366
2018-11-22T13:04:33.681Z,366
2018-11-22T13:05:40.900Z,367
2018-11-22T13:06:48.111Z,368
2018-11-22T13:07:55.063Z,367
2018-11-22T13:09:01.992Z,366
2018-11-22T13:10:08.937Z,367
2018-11-22T13:11:15.878Z,367
2018-11-22T13:12:22.559Z,365
2018-11-22T13:13:29.484Z,366
2018-11-22T13:14:36.444Z,366
2018-11-22T13:15:43.655Z,366
2018-11-22T13:16:50.603Z,366
2018-11-22T13:17:57.552Z,366
2018-11-22T13:19:04.499Z,366
2018-11-22T13:20:12.963Z,367
2018-11-22T13:21:19.641Z,367
2018-11-22T13:22:26.568Z,368
2018-11-22T13:23:33.791Z,368
2018-11-22T13:24:40.739Z,368
2018-11-22T13:25:47.682Z,368
2018-11-22T13:26:54.614Z,369
2018-11-22T13:28:01.568Z,368
2018-11-22T13:29:08.779Z,368
2018-11-22T13:30:15.996Z,368
2018-11-22T13:31:22.661Z,368
2018-11-22T13:32:29.349Z,368
2018-11-22T13:33:36.292Z,368
2018-11-22T13:34:43.511Z,368
2018-11-22T13:35:50.729Z,368
2018-11-22T13:36:57.409Z,368
2018-11-22T13:38:04.345Z,368
2018-11-22T13:39:11.302Z,368
2018-11-22T13:40:18.237Z,368
2018-11-22T13:41:25.459Z,368
2018-11-22T13:42:32.666Z,368
2018-11-22T13:43:39.619Z,369
2018-11-22T13:44:46.550Z,368
2018-11-22T13:45:53.766Z,368
2018-11-22T13:47:00.978Z,369
2018-11-22T13:48:07.929Z,370
2018-11-22T13:49:15.128Z,369
2018-11-22T13:50:21.802Z,369
2018-11-22T13:51:29.022Z,370
2018-11-22T13:52:37.996Z,370
2018-11-22T13:53:44.927Z,370
2018-11-22T13:54:51.872Z,370
2018-11-22T13:55:58.805Z,370
2018-11-22T13:57:05.745Z,370
2018-11-22T13:58:12.681Z,369
2018-11-22T13:59:19.907Z,369
2018-11-22T14:00:26.843Z,370
2018-11-22T14:01:33.510Z,370
2018-11-22T14:02:40.443Z,369
2018-11-22T14:03:47.685Z,370
2018-11-22T14:04:54.901Z,370
2018-11-22T14:06:02.124Z,370
2018-11-22T14:07:09.342Z,370
2018-11-22T14:08:16.571Z,371
2018-11-22T14:09:23.779Z,371
2018-11-22T14:10:30.724Z,371
2018-11-22T14:11:37.125Z,371
2018-11-22T14:12:43.790Z,371
2018-11-22T14:13:50.992Z,371
2018-11-22T14:14:58.216Z,371
2018-11-22T14:16:05.163Z,371
2018-11-22T14:17:12.126Z,372
2018-11-22T14:18:19.065Z,371
2018-11-22T14:19:25.730Z,371
2018-11-22T14:20:32.941Z,371
2018-11-22T14:21:39.887Z,371
2018-11-22T14:22:47.106Z,371
2018-11-22T14:23:54.322Z,371
2018-11-22T14:25:01.030Z,371
2018-11-22T14:26:08.252Z,372
2018-11-22T14:27:15.484Z,371
2018-11-22T14:28:22.174Z,372
2018-11-22T14:29:29.386Z,372
2018-11-22T14:30:36.340Z,372
2018-11-22T14:31:43.548Z,372
2018-11-22T14:32:50.778Z,372
2018-11-22T14:33:57.985Z,373
2018-11-22T14:35:04.927Z,372
2018-11-22T14:36:13.015Z,372
2018-11-22T14:37:19.722Z,372
2018-11-22T14:38:26.653Z,373
2018-11-22T14:39:33.865Z,373
2018-11-22T14:40:41.062Z,373
2018-11-22T14:41:48.005Z,373
2018-11-22T14:42:54.933Z,374
2018-11-22T14:44:02.158Z,374
2018-11-22T14:45:08.531Z,374
2018-11-22T14:46:15.207Z,374
2018-11-22T14:47:21.872Z,374
2018-11-22T14:48:28.563Z,375
2018-11-22T14:49:35.769Z,375
2018-11-22T14:50:42.996Z,374
2018-11-22T14:51:50.197Z,375
2018-11-22T14:52:57.421Z,375
2018-11-22T14:54:04.627Z,375
2018-11-22T14:55:11.573Z,375
2018-11-22T14:56:18.788Z,375
2018-11-22T14:57:26.008Z,375
2018-11-22T14:58:32.957Z,375
2018-11-22T14:59:39.909Z,375
2018-11-22T15:00:46.303Z,375
2018-11-22T15:01:53.253Z,375
2018-11-22T15:03:00.470Z,375
2018-11-22T15:04:06.879Z,375
2018-11-22T15:05:14.126Z,375
2018-11-22T15:06:20.831Z,375
2018-11-22T15:07:29.769Z,375
2018-11-22T15:08:36.743Z,375
2018-11-22T15:09:43.680Z,376
2018-11-22T15:10:50.906Z,376
2018-11-22T15:11:57.840Z,376
2018-11-22T15:13:05.058Z,375
2018-11-22T15:14:12.265Z,376
2018-11-22T15:15:19.487Z,376
2018-11-22T15:16:26.446Z,377
2018-11-22T15:17:33.662Z,376
2018-11-22T15:18:40.599Z,376
2018-11-22T15:19:47.556Z,376
2018-11-22T15:21:01.576Z,376
2018-11-22T15:22:08.843Z,377
2018-11-22T15:23:15.801Z,377
2018-11-22T15:24:22.743Z,377